sensor_id;sensor_type;location;lat;lon;timestamp;P1;durP1;ratioP1;P2;durP2;ratioP2
38240;SDS011;24037;49.536;8.500;2023-05-19T00:01:41;4.82;;;2.38;;
38240;SDS011;24037;49.536;8.500;2023-05-19T00:04:13;6.85;;;2.55;;
38240;SDS011;24037;49.536;8.500;2023-05-19T00:06:40;3.70;;;1.70;;
38240;SDS011;24037;49.536;8.500;2023-05-19T00:09:08;3.60;;;1.95;;
38240;SDS011;24037;49.536;8.500;2023-05-19T00:11:35;4.60;;;1.92;;
38240;SDS011;24037;49.536;8.500;2023-05-19T00:14:03;4.60;;;2.08;;
38240;SDS011;24037;49.536;8.500;2023-05-19T00:16:31;6.65;;;2.63;;
38240;SDS011;24037;49.536;8.500;2023-05-19T00:18:59;6.70;;;2.40;;
38240;SDS011;24037;49.536;8.500;2023-05-19T00:21:27;4.15;;;1.67;;
38240;SDS011;24037;49.536;8.500;2023-05-19T00:23:54;6.75;;;2.10;;
38240;SDS011;24037;49.536;8.500;2023-05-19T00:26:20;9.60;;;2.13;;
38240;SDS011;24037;49.536;8.500;2023-05-19T00:28:57;8.35;;;2.78;;
38240;SDS011;24037;49.536;8.500;2023-05-19T00:31:24;4.93;;;1.95;;
38240;SDS011;24037;49.536;8.500;2023-05-19T00:33:50;6.18;;;2.38;;
38240;SDS011;24037;49.536;8.500;2023-05-19T00:36:16;11.43;;;1.90;;
38240;SDS011;24037;49.536;8.500;2023-05-19T00:38:43;5.28;;;1.42;;
38240;SDS011;24037;49.536;8.500;2023-05-19T00:41:09;3.22;;;1.63;;
38240;SDS011;24037;49.536;8.500;2023-05-19T00:43:35;5.55;;;1.75;;
38240;SDS011;24037;49.536;8.500;2023-05-19T00:46:01;7.65;;;2.40;;
38240;SDS011;24037;49.536;8.500;2023-05-19T00:48:28;4.45;;;1.42;;
38240;SDS011;24037;49.536;8.500;2023-05-19T00:50:57;5.95;;;1.90;;
38240;SDS011;24037;49.536;8.500;2023-05-19T00:53:29;4.38;;;2.03;;
38240;SDS011;24037;49.536;8.500;2023-05-19T00:55:56;4.20;;;2.05;;
38240;SDS011;24037;49.536;8.500;2023-05-19T00:58:23;5.30;;;1.88;;
38240;SDS011;24037;49.536;8.500;2023-05-19T01:00:54;7.20;;;2.20;;
38240;SDS011;24037;49.536;8.500;2023-05-19T01:03:33;5.05;;;2.03;;
38240;SDS011;24037;49.536;8.500;2023-05-19T01:06:00;8.23;;;1.80;;
38240;SDS011;24037;49.536;8.500;2023-05-19T01:08:31;8.43;;;1.70;;
38240;SDS011;24037;49.536;8.500;2023-05-19T01:10:57;5.43;;;2.40;;
38240;SDS011;24037;49.536;8.500;2023-05-19T01:13:25;5.85;;;2.30;;
38240;SDS011;24037;49.536;8.500;2023-05-19T01:15:57;7.03;;;2.20;;
38240;SDS011;24037;49.536;8.500;2023-05-19T01:24:29;7.82;;;3.00;;
38240;SDS011;24037;49.536;8.500;2023-05-19T01:33:12;5.70;;;2.80;;
38240;SDS011;24037;49.536;8.500;2023-05-19T01:35:40;7.82;;;2.05;;
38240;SDS011;24037;49.536;8.500;2023-05-19T01:38:08;4.88;;;2.35;;
38240;SDS011;24037;49.536;8.500;2023-05-19T01:40:36;9.93;;;2.90;;
38240;SDS011;24037;49.536;8.500;2023-05-19T01:43:04;6.07;;;2.10;;
38240;SDS011;24037;49.536;8.500;2023-05-19T01:45:32;4.30;;;2.30;;
38240;SDS011;24037;49.536;8.500;2023-05-19T01:48:00;4.85;;;2.88;;
38240;SDS011;24037;49.536;8.500;2023-05-19T01:50:31;3.88;;;2.10;;
38240;SDS011;24037;49.536;8.500;2023-05-19T01:52:57;4.18;;;2.10;;
38240;SDS011;24037;49.536;8.500;2023-05-19T01:55:25;5.53;;;2.90;;
38240;SDS011;24037;49.536;8.500;2023-05-19T01:58:30;3.55;;;2.50;;
38240;SDS011;24037;49.536;8.500;2023-05-19T02:11:29;16.48;;;3.33;;
38240;SDS011;24037;49.536;8.500;2023-05-19T02:14:29;6.32;;;3.05;;
38240;SDS011;24037;49.536;8.500;2023-05-19T02:16:59;5.07;;;2.90;;
38240;SDS011;24037;49.536;8.500;2023-05-19T02:19:33;5.47;;;2.70;;
38240;SDS011;24037;49.536;8.500;2023-05-19T02:22:02;6.40;;;2.15;;
38240;SDS011;24037;49.536;8.500;2023-05-19T02:24:29;8.27;;;2.88;;
38240;SDS011;24037;49.536;8.500;2023-05-19T02:26:57;8.20;;;3.20;;
38240;SDS011;24037;49.536;8.500;2023-05-19T02:29:24;5.30;;;2.67;;
38240;SDS011;24037;49.536;8.500;2023-05-19T02:31:50;7.50;;;2.95;;
38240;SDS011;24037;49.536;8.500;2023-05-19T02:34:17;7.55;;;3.15;;
38240;SDS011;24037;49.536;8.500;2023-05-19T02:36:44;5.95;;;3.15;;
38240;SDS011;24037;49.536;8.500;2023-05-19T02:39:10;5.65;;;2.60;;
38240;SDS011;24037;49.536;8.500;2023-05-19T02:41:37;7.85;;;3.35;;
38240;SDS011;24037;49.536;8.500;2023-05-19T02:44:03;5.72;;;3.60;;
38240;SDS011;24037;49.536;8.500;2023-05-19T02:46:31;8.45;;;2.90;;
38240;SDS011;24037;49.536;8.500;2023-05-19T02:48:57;7.50;;;3.10;;
38240;SDS011;24037;49.536;8.500;2023-05-19T02:51:24;11.57;;;3.50;;
38240;SDS011;24037;49.536;8.500;2023-05-19T02:53:50;5.93;;;2.92;;
38240;SDS011;24037;49.536;8.500;2023-05-19T02:56:16;6.63;;;2.60;;
38240;SDS011;24037;49.536;8.500;2023-05-19T02:58:42;8.95;;;3.03;;
38240;SDS011;24037;49.536;8.500;2023-05-19T03:01:09;6.38;;;3.10;;
38240;SDS011;24037;49.536;8.500;2023-05-19T03:03:35;7.82;;;3.17;;
38240;SDS011;24037;49.536;8.500;2023-05-19T03:06:01;6.32;;;2.95;;
38240;SDS011;24037;49.536;8.500;2023-05-19T03:08:28;7.30;;;3.33;;
38240;SDS011;24037;49.536;8.500;2023-05-19T03:10:54;8.68;;;3.38;;
38240;SDS011;24037;49.536;8.500;2023-05-19T03:13:20;9.88;;;3.15;;
38240;SDS011;24037;49.536;8.500;2023-05-19T03:15:46;8.23;;;3.20;;
38240;SDS011;24037;49.536;8.500;2023-05-19T03:18:15;10.40;;;3.58;;
38240;SDS011;24037;49.536;8.500;2023-05-19T03:20:41;11.60;;;3.38;;
38240;SDS011;24037;49.536;8.500;2023-05-19T03:23:09;4.72;;;3.08;;
38240;SDS011;24037;49.536;8.500;2023-05-19T03:25:35;6.28;;;2.75;;
38240;SDS011;24037;49.536;8.500;2023-05-19T03:28:01;6.18;;;3.10;;
38240;SDS011;24037;49.536;8.500;2023-05-19T03:30:27;7.68;;;4.43;;
38240;SDS011;24037;49.536;8.500;2023-05-19T03:33:11;8.02;;;3.35;;
38240;SDS011;24037;49.536;8.500;2023-05-19T03:35:38;5.47;;;3.70;;
38240;SDS011;24037;49.536;8.500;2023-05-19T03:38:05;6.22;;;3.40;;
38240;SDS011;24037;49.536;8.500;2023-05-19T03:40:31;10.48;;;3.80;;
38240;SDS011;24037;49.536;8.500;2023-05-19T03:43:03;7.93;;;3.30;;
38240;SDS011;24037;49.536;8.500;2023-05-19T03:45:31;9.60;;;3.08;;
38240;SDS011;24037;49.536;8.500;2023-05-19T03:47:59;6.35;;;3.35;;
38240;SDS011;24037;49.536;8.500;2023-05-19T03:50:45;5.15;;;3.25;;
38240;SDS011;24037;49.536;8.500;2023-05-19T03:53:21;6.20;;;3.40;;
38240;SDS011;24037;49.536;8.500;2023-05-19T03:55:47;4.22;;;2.83;;
38240;SDS011;24037;49.536;8.500;2023-05-19T03:58:14;8.93;;;4.85;;
38240;SDS011;24037;49.536;8.500;2023-05-19T04:00:40;10.50;;;3.85;;
38240;SDS011;24037;49.536;8.500;2023-05-19T04:03:07;7.40;;;3.47;;
38240;SDS011;24037;49.536;8.500;2023-05-19T04:05:33;5.53;;;3.72;;
38240;SDS011;24037;49.536;8.500;2023-05-19T04:07:59;6.32;;;3.70;;
38240;SDS011;24037;49.536;8.500;2023-05-19T04:10:25;5.50;;;3.38;;
38240;SDS011;24037;49.536;8.500;2023-05-19T04:12:53;8.48;;;3.58;;
38240;SDS011;24037;49.536;8.500;2023-05-19T04:15:19;6.03;;;4.03;;
38240;SDS011;24037;49.536;8.500;2023-05-19T04:17:45;9.65;;;4.78;;
38240;SDS011;24037;49.536;8.500;2023-05-19T04:20:12;8.80;;;3.75;;
38240;SDS011;24037;49.536;8.500;2023-05-19T04:22:38;8.40;;;3.78;;
38240;SDS011;24037;49.536;8.500;2023-05-19T04:25:04;7.22;;;3.75;;
38240;SDS011;24037;49.536;8.500;2023-05-19T04:27:32;6.50;;;3.08;;
38240;SDS011;24037;49.536;8.500;2023-05-19T04:30:01;9.43;;;4.05;;
38240;SDS011;24037;49.536;8.500;2023-05-19T04:32:28;7.35;;;3.05;;
38240;SDS011;24037;49.536;8.500;2023-05-19T04:34:56;7.65;;;2.95;;
38240;SDS011;24037;49.536;8.500;2023-05-19T04:37:26;6.30;;;3.60;;
38240;SDS011;24037;49.536;8.500;2023-05-19T04:39:53;8.43;;;3.22;;
38240;SDS011;24037;49.536;8.500;2023-05-19T04:42:21;7.57;;;3.38;;
38240;SDS011;24037;49.536;8.500;2023-05-19T04:44:51;6.85;;;3.22;;
38240;SDS011;24037;49.536;8.500;2023-05-19T04:47:18;6.13;;;3.05;;
38240;SDS011;24037;49.536;8.500;2023-05-19T04:49:46;8.48;;;3.35;;
38240;SDS011;24037;49.536;8.500;2023-05-19T04:52:13;4.95;;;2.22;;
38240;SDS011;24037;49.536;8.500;2023-05-19T04:54:40;8.07;;;3.05;;
38240;SDS011;24037;49.536;8.500;2023-05-19T04:57:08;9.35;;;3.75;;
38240;SDS011;24037;49.536;8.500;2023-05-19T04:59:38;4.00;;;2.55;;
38240;SDS011;24037;49.536;8.500;2023-05-19T05:02:07;5.45;;;3.00;;
38240;SDS011;24037;49.536;8.500;2023-05-19T05:04:34;8.30;;;2.65;;
38240;SDS011;24037;49.536;8.500;2023-05-19T05:07:01;7.25;;;2.92;;
38240;SDS011;24037;49.536;8.500;2023-05-19T05:09:28;5.68;;;2.33;;
38240;SDS011;24037;49.536;8.500;2023-05-19T05:11:56;11.25;;;3.00;;
38240;SDS011;24037;49.536;8.500;2023-05-19T05:14:23;8.73;;;2.38;;
38240;SDS011;24037;49.536;8.500;2023-05-19T05:16:50;8.95;;;3.25;;
38240;SDS011;24037;49.536;8.500;2023-05-19T05:21:47;7.07;;;2.38;;
38240;SDS011;24037;49.536;8.500;2023-05-19T05:24:15;6.88;;;2.30;;
38240;SDS011;24037;49.536;8.500;2023-05-19T05:26:46;5.13;;;2.28;;
38240;SDS011;24037;49.536;8.500;2023-05-19T05:29:13;9.65;;;3.03;;
38240;SDS011;24037;49.536;8.500;2023-05-19T05:31:39;4.22;;;1.92;;
38240;SDS011;24037;49.536;8.500;2023-05-19T05:34:05;9.85;;;2.10;;
38240;SDS011;24037;49.536;8.500;2023-05-19T05:36:32;8.13;;;2.17;;
38240;SDS011;24037;49.536;8.500;2023-05-19T05:39:00;7.70;;;3.03;;
38240;SDS011;24037;49.536;8.500;2023-05-19T05:41:28;6.30;;;2.22;;
38240;SDS011;24037;49.536;8.500;2023-05-19T05:44:01;3.88;;;1.98;;
38240;SDS011;24037;49.536;8.500;2023-05-19T05:46:28;4.15;;;2.00;;
38240;SDS011;24037;49.536;8.500;2023-05-19T05:48:55;8.23;;;3.88;;
38240;SDS011;24037;49.536;8.500;2023-05-19T05:51:22;4.45;;;2.28;;
38240;SDS011;24037;49.536;8.500;2023-05-19T05:53:50;7.80;;;2.03;;
38240;SDS011;24037;49.536;8.500;2023-05-19T05:56:21;7.82;;;3.15;;
38240;SDS011;24037;49.536;8.500;2023-05-19T05:58:51;6.93;;;2.10;;
38240;SDS011;24037;49.536;8.500;2023-05-19T06:01:17;6.53;;;2.08;;
38240;SDS011;24037;49.536;8.500;2023-05-19T06:03:43;5.75;;;1.88;;
38240;SDS011;24037;49.536;8.500;2023-05-19T06:06:12;10.38;;;2.08;;
38240;SDS011;24037;49.536;8.500;2023-05-19T06:08:39;6.32;;;1.80;;
38240;SDS011;24037;49.536;8.500;2023-05-19T06:11:06;6.15;;;2.10;;
38240;SDS011;24037;49.536;8.500;2023-05-19T06:13:34;5.88;;;1.92;;
38240;SDS011;24037;49.536;8.500;2023-05-19T06:16:04;7.40;;;1.77;;
38240;SDS011;24037;49.536;8.500;2023-05-19T06:18:37;4.78;;;1.40;;
38240;SDS011;24037;49.536;8.500;2023-05-19T06:21:03;4.90;;;1.48;;
38240;SDS011;24037;49.536;8.500;2023-05-19T06:23:30;5.07;;;1.63;;
38240;SDS011;24037;49.536;8.500;2023-05-19T06:25:56;3.45;;;1.38;;
38240;SDS011;24037;49.536;8.500;2023-05-19T06:28:22;5.80;;;1.75;;
38240;SDS011;24037;49.536;8.500;2023-05-19T06:30:50;5.60;;;1.65;;
38240;SDS011;24037;49.536;8.500;2023-05-19T06:33:26;4.50;;;1.25;;
38240;SDS011;24037;49.536;8.500;2023-05-19T06:35:52;5.65;;;1.60;;
38240;SDS011;24037;49.536;8.500;2023-05-19T06:38:19;6.35;;;1.70;;
38240;SDS011;24037;49.536;8.500;2023-05-19T06:40:46;6.20;;;1.77;;
38240;SDS011;24037;49.536;8.500;2023-05-19T06:43:13;5.53;;;1.17;;
38240;SDS011;24037;49.536;8.500;2023-05-19T06:45:52;4.00;;;1.10;;
38240;SDS011;24037;49.536;8.500;2023-05-19T06:48:19;4.75;;;1.30;;
38240;SDS011;24037;49.536;8.500;2023-05-19T06:50:46;4.00;;;1.00;;
38240;SDS011;24037;49.536;8.500;2023-05-19T06:53:12;3.25;;;1.38;;
38240;SDS011;24037;49.536;8.500;2023-05-19T06:55:39;4.80;;;1.30;;
38240;SDS011;24037;49.536;8.500;2023-05-19T06:58:06;4.55;;;1.30;;
38240;SDS011;24037;49.536;8.500;2023-05-19T07:00:32;5.63;;;1.55;;
38240;SDS011;24037;49.536;8.500;2023-05-19T07:03:00;5.30;;;1.20;;
38240;SDS011;24037;49.536;8.500;2023-05-19T07:05:26;6.05;;;2.25;;
38240;SDS011;24037;49.536;8.500;2023-05-19T07:07:56;5.00;;;1.25;;
38240;SDS011;24037;49.536;8.500;2023-05-19T07:10:25;4.72;;;1.25;;
38240;SDS011;24037;49.536;8.500;2023-05-19T07:12:53;5.65;;;2.15;;
38240;SDS011;24037;49.536;8.500;2023-05-19T07:15:22;7.50;;;1.85;;
38240;SDS011;24037;49.536;8.500;2023-05-19T07:17:48;3.28;;;1.40;;
38240;SDS011;24037;49.536;8.500;2023-05-19T07:20:15;4.80;;;1.35;;
38240;SDS011;24037;49.536;8.500;2023-05-19T07:22:41;4.63;;;1.30;;
38240;SDS011;24037;49.536;8.500;2023-05-19T07:25:08;3.17;;;1.35;;
38240;SDS011;24037;49.536;8.500;2023-05-19T07:27:34;4.40;;;1.65;;
38240;SDS011;24037;49.536;8.500;2023-05-19T07:30:02;4.45;;;1.33;;
38240;SDS011;24037;49.536;8.500;2023-05-19T07:32:28;6.25;;;1.67;;
38240;SDS011;24037;49.536;8.500;2023-05-19T07:34:54;2.65;;;1.30;;
38240;SDS011;24037;49.536;8.500;2023-05-19T07:37:21;3.85;;;1.55;;
38240;SDS011;24037;49.536;8.500;2023-05-19T07:39:47;3.60;;;1.30;;
38240;SDS011;24037;49.536;8.500;2023-05-19T07:42:13;2.72;;;1.25;;
38240;SDS011;24037;49.536;8.500;2023-05-19T07:44:40;4.72;;;1.45;;
38240;SDS011;24037;49.536;8.500;2023-05-19T07:47:06;3.47;;;1.38;;
38240;SDS011;24037;49.536;8.500;2023-05-19T07:49:35;3.42;;;2.05;;
38240;SDS011;24037;49.536;8.500;2023-05-19T07:52:02;3.10;;;1.15;;
38240;SDS011;24037;49.536;8.500;2023-05-19T07:54:28;4.43;;;1.63;;
38240;SDS011;24037;49.536;8.500;2023-05-19T07:56:54;5.00;;;1.40;;
38240;SDS011;24037;49.536;8.500;2023-05-19T07:59:21;5.40;;;1.48;;
38240;SDS011;24037;49.536;8.500;2023-05-19T08:01:47;6.18;;;1.13;;
38240;SDS011;24037;49.536;8.500;2023-05-19T08:04:13;3.35;;;1.33;;
38240;SDS011;24037;49.536;8.500;2023-05-19T08:06:39;4.78;;;1.77;;
38240;SDS011;24037;49.536;8.500;2023-05-19T08:09:07;4.93;;;1.65;;
38240;SDS011;24037;49.536;8.500;2023-05-19T08:11:33;3.45;;;1.25;;
38240;SDS011;24037;49.536;8.500;2023-05-19T08:14:00;5.32;;;1.52;;
38240;SDS011;24037;49.536;8.500;2023-05-19T08:16:26;3.75;;;1.65;;
38240;SDS011;24037;49.536;8.500;2023-05-19T08:18:52;3.92;;;1.17;;
38240;SDS011;24037;49.536;8.500;2023-05-19T08:21:19;3.42;;;1.50;;
38240;SDS011;24037;49.536;8.500;2023-05-19T08:23:46;2.75;;;1.25;;
38240;SDS011;24037;49.536;8.500;2023-05-19T08:26:12;4.80;;;1.10;;
38240;SDS011;24037;49.536;8.500;2023-05-19T08:28:38;4.60;;;1.48;;
38240;SDS011;24037;49.536;8.500;2023-05-19T08:31:05;3.58;;;1.27;;
38240;SDS011;24037;49.536;8.500;2023-05-19T08:33:31;5.82;;;2.20;;
38240;SDS011;24037;49.536;8.500;2023-05-19T08:35:57;5.30;;;1.65;;
38240;SDS011;24037;49.536;8.500;2023-05-19T08:38:24;3.03;;;1.13;;
38240;SDS011;24037;49.536;8.500;2023-05-19T08:40:51;6.30;;;1.55;;
38240;SDS011;24037;49.536;8.500;2023-05-19T08:43:17;4.80;;;1.42;;
38240;SDS011;24037;49.536;8.500;2023-05-19T08:45:44;5.28;;;1.55;;
38240;SDS011;24037;49.536;8.500;2023-05-19T08:48:13;4.53;;;1.60;;
38240;SDS011;24037;49.536;8.500;2023-05-19T08:50:41;6.43;;;1.45;;
38240;SDS011;24037;49.536;8.500;2023-05-19T08:53:21;2.47;;;1.10;;
38240;SDS011;24037;49.536;8.500;2023-05-19T08:55:54;5.47;;;1.38;;
38240;SDS011;24037;49.536;8.500;2023-05-19T08:58:26;5.35;;;1.20;;
38240;SDS011;24037;49.536;8.500;2023-05-19T09:00:54;6.75;;;1.45;;
38240;SDS011;24037;49.536;8.500;2023-05-19T09:03:22;4.53;;;1.63;;
38240;SDS011;24037;49.536;8.500;2023-05-19T09:05:50;4.85;;;1.30;;
38240;SDS011;24037;49.536;8.500;2023-05-19T09:08:17;4.30;;;1.40;;
38240;SDS011;24037;49.536;8.500;2023-05-19T09:10:43;3.60;;;1.17;;
38240;SDS011;24037;49.536;8.500;2023-05-19T09:13:09;5.75;;;1.45;;
38240;SDS011;24037;49.536;8.500;2023-05-19T09:15:35;3.63;;;1.00;;
38240;SDS011;24037;49.536;8.500;2023-05-19T09:18:09;7.18;;;1.45;;
38240;SDS011;24037;49.536;8.500;2023-05-19T09:20:41;2.30;;;1.10;;
38240;SDS011;24037;49.536;8.500;2023-05-19T09:23:15;4.20;;;1.60;;
38240;SDS011;24037;49.536;8.500;2023-05-19T09:25:46;5.22;;;1.20;;
38240;SDS011;24037;49.536;8.500;2023-05-19T09:28:25;4.05;;;1.45;;
38240;SDS011;24037;49.536;8.500;2023-05-19T09:31:02;8.48;;;2.15;;
38240;SDS011;24037;49.536;8.500;2023-05-19T09:33:31;5.93;;;1.58;;
38240;SDS011;24037;49.536;8.500;2023-05-19T09:35:58;3.08;;;1.02;;
38240;SDS011;24037;49.536;8.500;2023-05-19T09:38:25;5.10;;;1.30;;
38240;SDS011;24037;49.536;8.500;2023-05-19T09:40:52;3.42;;;1.10;;
38240;SDS011;24037;49.536;8.500;2023-05-19T09:43:22;3.95;;;1.17;;
38240;SDS011;24037;49.536;8.500;2023-05-19T09:45:53;7.85;;;1.40;;
38240;SDS011;24037;49.536;8.500;2023-05-19T09:48:30;4.45;;;1.40;;
38240;SDS011;24037;49.536;8.500;2023-05-19T09:50:57;4.50;;;1.00;;
38240;SDS011;24037;49.536;8.500;2023-05-19T09:53:25;3.63;;;1.38;;
38240;SDS011;24037;49.536;8.500;2023-05-19T09:55:54;3.72;;;1.58;;
38240;SDS011;24037;49.536;8.500;2023-05-19T09:58:23;6.93;;;1.52;;
38240;SDS011;24037;49.536;8.500;2023-05-19T10:00:51;2.88;;;1.23;;
38240;SDS011;24037;49.536;8.500;2023-05-19T10:03:19;3.65;;;1.13;;
38240;SDS011;24037;49.536;8.500;2023-05-19T10:05:47;6.43;;;1.35;;
38240;SDS011;24037;49.536;8.500;2023-05-19T10:08:14;2.13;;;0.90;;
38240;SDS011;24037;49.536;8.500;2023-05-19T10:10:44;4.20;;;1.00;;
38240;SDS011;24037;49.536;8.500;2023-05-19T10:13:11;4.75;;;1.10;;
38240;SDS011;24037;49.536;8.500;2023-05-19T10:15:39;5.30;;;1.17;;
38240;SDS011;24037;49.536;8.500;2023-05-19T10:18:09;4.25;;;1.45;;
38240;SDS011;24037;49.536;8.500;2023-05-19T10:20:36;3.33;;;1.30;;
38240;SDS011;24037;49.536;8.500;2023-05-19T10:23:04;4.07;;;1.35;;
38240;SDS011;24037;49.536;8.500;2023-05-19T10:25:31;6.72;;;1.60;;
38240;SDS011;24037;49.536;8.500;2023-05-19T10:28:02;4.00;;;0.80;;
38240;SDS011;24037;49.536;8.500;2023-05-19T10:30:34;2.40;;;0.95;;
38240;SDS011;24037;49.536;8.500;2023-05-19T10:33:05;5.38;;;1.20;;
38240;SDS011;24037;49.536;8.500;2023-05-19T10:35:47;2.90;;;0.95;;
38240;SDS011;24037;49.536;8.500;2023-05-19T10:38:40;5.10;;;1.13;;
38240;SDS011;24037;49.536;8.500;2023-05-19T10:41:12;2.53;;;1.20;;
38240;SDS011;24037;49.536;8.500;2023-05-19T10:46:52;4.38;;;1.30;;
38240;SDS011;24037;49.536;8.500;2023-05-19T10:49:21;3.88;;;1.33;;
38240;SDS011;24037;49.536;8.500;2023-05-19T10:51:48;3.47;;;1.15;;
38240;SDS011;24037;49.536;8.500;2023-05-19T10:54:16;4.10;;;1.67;;
38240;SDS011;24037;49.536;8.500;2023-05-19T10:56:44;6.25;;;1.42;;
38240;SDS011;24037;49.536;8.500;2023-05-19T10:59:32;4.15;;;1.15;;
38240;SDS011;24037;49.536;8.500;2023-05-19T11:02:04;2.08;;;1.30;;
38240;SDS011;24037;49.536;8.500;2023-05-19T11:04:44;3.85;;;1.30;;
38240;SDS011;24037;49.536;8.500;2023-05-19T11:07:19;4.75;;;1.33;;
38240;SDS011;24037;49.536;8.500;2023-05-19T11:09:49;3.00;;;1.15;;
38240;SDS011;24037;49.536;8.500;2023-05-19T11:12:20;6.80;;;1.20;;
38240;SDS011;24037;49.536;8.500;2023-05-19T11:14:53;4.28;;;1.38;;
38240;SDS011;24037;49.536;8.500;2023-05-19T11:17:19;5.35;;;1.33;;
38240;SDS011;24037;49.536;8.500;2023-05-19T11:19:51;4.05;;;1.10;;
38240;SDS011;24037;49.536;8.500;2023-05-19T11:22:23;5.13;;;1.55;;
38240;SDS011;24037;49.536;8.500;2023-05-19T11:24:56;4.43;;;1.55;;
38240;SDS011;24037;49.536;8.500;2023-05-19T11:27:32;3.83;;;1.15;;
38240;SDS011;24037;49.536;8.500;2023-05-19T11:32:33;3.80;;;0.93;;
38240;SDS011;24037;49.536;8.500;2023-05-19T11:35:03;5.00;;;1.63;;
38240;SDS011;24037;49.536;8.500;2023-05-19T11:37:33;4.68;;;1.58;;
38240;SDS011;24037;49.536;8.500;2023-05-19T11:40:02;3.37;;;0.97;;
38240;SDS011;24037;49.536;8.500;2023-05-19T11:42:31;3.08;;;1.48;;
38240;SDS011;24037;49.536;8.500;2023-05-19T11:45:01;5.47;;;1.48;;
38240;SDS011;24037;49.536;8.500;2023-05-19T11:47:29;3.60;;;1.50;;
38240;SDS011;24037;49.536;8.500;2023-05-19T11:52:25;3.42;;;1.30;;
38240;SDS011;24037;49.536;8.500;2023-05-19T11:54:58;2.40;;;1.03;;
38240;SDS011;24037;49.536;8.500;2023-05-19T11:57:25;3.67;;;1.42;;
38240;SDS011;24037;49.536;8.500;2023-05-19T11:59:52;5.15;;;1.77;;
38240;SDS011;24037;49.536;8.500;2023-05-19T12:02:22;3.60;;;0.93;;
38240;SDS011;24037;49.536;8.500;2023-05-19T12:04:49;2.05;;;0.98;;
38240;SDS011;24037;49.536;8.500;2023-05-19T12:07:17;5.90;;;1.27;;
38240;SDS011;24037;49.536;8.500;2023-05-19T12:09:44;2.30;;;1.02;;
38240;SDS011;24037;49.536;8.500;2023-05-19T12:12:12;3.38;;;1.20;;
38240;SDS011;24037;49.536;8.500;2023-05-19T12:14:39;6.30;;;1.75;;
38240;SDS011;24037;49.536;8.500;2023-05-19T12:17:09;4.40;;;1.55;;
38240;SDS011;24037;49.536;8.500;2023-05-19T12:19:41;3.67;;;0.85;;
38240;SDS011;24037;49.536;8.500;2023-05-19T12:22:09;2.53;;;1.30;;
38240;SDS011;24037;49.536;8.500;2023-05-19T12:24:36;6.38;;;1.52;;
38240;SDS011;24037;49.536;8.500;2023-05-19T12:27:09;2.08;;;0.98;;
38240;SDS011;24037;49.536;8.500;2023-05-19T12:29:42;3.47;;;1.25;;
38240;SDS011;24037;49.536;8.500;2023-05-19T12:32:13;11.68;;;1.30;;
38240;SDS011;24037;49.536;8.500;2023-05-19T12:34:40;3.53;;;1.58;;
38240;SDS011;24037;49.536;8.500;2023-05-19T12:37:06;4.20;;;1.98;;
38240;SDS011;24037;49.536;8.500;2023-05-19T12:39:34;3.35;;;1.20;;
38240;SDS011;24037;49.536;8.500;2023-05-19T12:42:07;11.48;;;1.80;;
38240;SDS011;24037;49.536;8.500;2023-05-19T12:44:41;4.53;;;1.45;;
38240;SDS011;24037;49.536;8.500;2023-05-19T12:47:14;6.38;;;1.55;;
38240;SDS011;24037;49.536;8.500;2023-05-19T12:52:39;3.92;;;1.13;;
38240;SDS011;24037;49.536;8.500;2023-05-19T12:55:07;3.08;;;1.48;;
38240;SDS011;24037;49.536;8.500;2023-05-19T12:57:36;6.50;;;1.67;;
38240;SDS011;24037;49.536;8.500;2023-05-19T13:00:04;2.25;;;1.13;;
38240;SDS011;24037;49.536;8.500;2023-05-19T13:02:53;4.63;;;1.27;;
38240;SDS011;24037;49.536;8.500;2023-05-19T13:05:24;5.45;;;1.67;;
38240;SDS011;24037;49.536;8.500;2023-05-19T13:07:55;1.58;;;0.75;;
38240;SDS011;24037;49.536;8.500;2023-05-19T13:10:41;6.05;;;1.27;;
38240;SDS011;24037;49.536;8.500;2023-05-19T13:13:09;4.20;;;1.48;;
38240;SDS011;24037;49.536;8.500;2023-05-19T13:15:36;4.03;;;1.27;;
38240;SDS011;24037;49.536;8.500;2023-05-19T13:18:08;4.07;;;1.10;;
38240;SDS011;24037;49.536;8.500;2023-05-19T13:20:36;4.22;;;1.25;;
38240;SDS011;24037;49.536;8.500;2023-05-19T13:23:04;5.35;;;2.70;;
38240;SDS011;24037;49.536;8.500;2023-05-19T13:25:34;6.85;;;1.17;;
38240;SDS011;24037;49.536;8.500;2023-05-19T13:28:01;3.40;;;0.90;;
38240;SDS011;24037;49.536;8.500;2023-05-19T13:30:30;4.47;;;1.15;;
38240;SDS011;24037;49.536;8.500;2023-05-19T13:32:57;2.45;;;1.00;;
38240;SDS011;24037;49.536;8.500;2023-05-19T13:35:23;3.80;;;1.38;;
38240;SDS011;24037;49.536;8.500;2023-05-19T13:37:50;6.47;;;1.10;;
38240;SDS011;24037;49.536;8.500;2023-05-19T13:40:16;3.72;;;1.00;;
38240;SDS011;24037;49.536;8.500;2023-05-19T13:42:42;4.20;;;1.30;;
38240;SDS011;24037;49.536;8.500;2023-05-19T13:45:09;7.68;;;1.13;;
38240;SDS011;24037;49.536;8.500;2023-05-19T13:47:36;1.75;;;0.75;;
38240;SDS011;24037;49.536;8.500;2023-05-19T13:50:03;3.50;;;1.33;;
38240;SDS011;24037;49.536;8.500;2023-05-19T13:52:30;2.83;;;1.42;;
38240;SDS011;24037;49.536;8.500;2023-05-19T13:54:57;2.95;;;1.00;;
38240;SDS011;24037;49.536;8.500;2023-05-19T13:57:23;7.13;;;1.15;;
38240;SDS011;24037;49.536;8.500;2023-05-19T13:59:51;2.70;;;1.00;;
38240;SDS011;24037;49.536;8.500;2023-05-19T14:02:21;5.22;;;1.10;;
38240;SDS011;24037;49.536;8.500;2023-05-19T14:04:47;4.35;;;1.13;;
38240;SDS011;24037;49.536;8.500;2023-05-19T14:07:13;3.60;;;1.00;;
38240;SDS011;24037;49.536;8.500;2023-05-19T14:09:41;5.07;;;1.45;;
38240;SDS011;24037;49.536;8.500;2023-05-19T14:12:07;3.35;;;0.90;;
38240;SDS011;24037;49.536;8.500;2023-05-19T14:14:36;5.40;;;1.42;;
38240;SDS011;24037;49.536;8.500;2023-05-19T14:17:03;3.28;;;1.30;;
38240;SDS011;24037;49.536;8.500;2023-05-19T14:19:29;1.95;;;1.08;;
38240;SDS011;24037;49.536;8.500;2023-05-19T14:21:56;4.63;;;1.05;;
38240;SDS011;24037;49.536;8.500;2023-05-19T14:24:22;4.65;;;1.40;;
38240;SDS011;24037;49.536;8.500;2023-05-19T14:26:48;4.05;;;1.35;;
38240;SDS011;24037;49.536;8.500;2023-05-19T14:29:15;2.00;;;1.08;;
38240;SDS011;24037;49.536;8.500;2023-05-19T14:31:41;4.32;;;1.27;;
38240;SDS011;24037;49.536;8.500;2023-05-19T14:34:07;2.92;;;1.00;;
38240;SDS011;24037;49.536;8.500;2023-05-19T14:36:33;2.70;;;1.17;;
38240;SDS011;24037;49.536;8.500;2023-05-19T14:39:00;4.47;;;1.30;;
38240;SDS011;24037;49.536;8.500;2023-05-19T14:41:26;2.25;;;0.73;;
38240;SDS011;24037;49.536;8.500;2023-05-19T14:43:52;4.50;;;1.73;;
38240;SDS011;24037;49.536;8.500;2023-05-19T14:46:18;3.25;;;1.10;;
38240;SDS011;24037;49.536;8.500;2023-05-19T14:48:45;2.75;;;1.15;;
38240;SDS011;24037;49.536;8.500;2023-05-19T14:51:11;5.53;;;1.38;;
38240;SDS011;24037;49.536;8.500;2023-05-19T14:53:37;3.85;;;1.38;;
38240;SDS011;24037;49.536;8.500;2023-05-19T14:56:03;3.38;;;1.65;;
38240;SDS011;24037;49.536;8.500;2023-05-19T14:58:30;3.15;;;0.90;;
38240;SDS011;24037;49.536;8.500;2023-05-19T15:00:57;4.57;;;1.25;;
38240;SDS011;24037;49.536;8.500;2023-05-19T15:03:23;2.55;;;0.93;;
38240;SDS011;24037;49.536;8.500;2023-05-19T15:05:50;2.67;;;1.00;;
38240;SDS011;24037;49.536;8.500;2023-05-19T15:08:16;4.03;;;1.10;;
38240;SDS011;24037;49.536;8.500;2023-05-19T15:10:42;4.28;;;1.95;;
38240;SDS011;24037;49.536;8.500;2023-05-19T15:13:12;2.58;;;0.80;;
38240;SDS011;24037;49.536;8.500;2023-05-19T15:15:38;4.28;;;1.05;;
38240;SDS011;24037;49.536;8.500;2023-05-19T15:18:04;3.35;;;0.95;;
38240;SDS011;24037;49.536;8.500;2023-05-19T15:20:31;3.45;;;1.08;;
38240;SDS011;24037;49.536;8.500;2023-05-19T15:22:57;4.15;;;1.00;;
38240;SDS011;24037;49.536;8.500;2023-05-19T15:25:23;1.10;;;0.68;;
38240;SDS011;24037;49.536;8.500;2023-05-19T15:27:49;2.03;;;0.90;;
38240;SDS011;24037;49.536;8.500;2023-05-19T15:30:15;1.70;;;1.08;;
38240;SDS011;24037;49.536;8.500;2023-05-19T15:32:44;4.95;;;1.40;;